Time;durP1;ratioP1;P1;durP2;ratioP2;P2;SDS_P1;SDS_P2;PMS_P1;PMS_P2;Temp;Humidity;BMP_temperature;BMP_pressure;BME280_temperature;BME280_humidity;BME280_pressure;Samples;Min_cycle;Max_cycle;Signal;HPM_P1;HPM_P2
2023/09/01 00:00:37;;;;;;;3.30;2.20;;;18.40;99.90;;;;;;5093806;28;20089;-60
2023/09/01 00:03:03;;;;;;;3.47;2.38;;;18.40;99.90;;;;;;5093620;28;20040;-61
2023/09/01 00:05:33;;;;;;;4.20;2.55;;;18.40;99.90;;;;;;5093878;28;20322;-61
2023/09/01 00:07:58;;;;;;;5.70;2.33;;;18.40;99.90;;;;;;5093746;28;20031;-60
2023/09/01 00:10:24;;;;;;;5.18;2.50;;;18.30;99.90;;;;;;5075589;28;20115;-61
2023/09/01 00:12:50;;;;;;;4.45;2.30;;;18.30;99.90;;;;;;5093660;28;20020;-60
2023/09/01 00:15:15;;;;;;;3.05;2.35;;;18.30;99.90;;;;;;5093867;28;20027;-61
2023/09/01 00:17:41;;;;;;;5.40;2.58;;;18.30;99.90;;;;;;5093415;28;20035;-60
2023/09/01 00:20:07;;;;;;;3.90;2.30;;;18.30;99.90;;;;;;5093319;28;20463;-60
2023/09/01 00:22:33;;;;;;;3.28;2.60;;;18.10;99.90;;;;;;5092995;28;20158;-61
2023/09/01 00:24:58;;;;;;;4.40;2.58;;;18.00;99.90;;;;;;5093394;28;20106;-61
2023/09/01 00:27:24;;;;;;;4.88;2.80;;;17.90;99.90;;;;;;5093699;28;20056;-61
2023/09/01 00:29:50;;;;;;;5.28;2.50;;;17.80;99.90;;;;;;5093166;28;20105;-61
2023/09/01 00:32:15;;;;;;;4.90;2.50;;;17.80;99.90;;;;;;5093199;28;20042;-60
2023/09/01 00:34:41;;;;;;;3.90;2.20;;;17.70;99.90;;;;;;5093135;28;20024;-60
2023/09/01 00:37:07;;;;;;;4.75;2.38;;;17.60;99.90;;;;;;5092991;28;20522;-61
2023/09/01 00:39:32;;;;;;;4.60;2.50;;;17.60;99.90;;;;;;5092966;28;20449;-61
2023/09/01 00:41:59;;;;;;;3.00;2.53;;;17.50;99.90;;;;;;5093299;28;20378;-61
2023/09/01 00:44:24;;;;;;;6.82;2.80;;;17.50;99.90;;;;;;5092973;28;20064;-61
2023/09/01 00:46:50;;;;;;;4.18;2.65;;;17.50;99.90;;;;;;5093013;28;20056;-61
2023/09/01 00:49:18;;;;;;;4.63;2.40;;;17.40;99.90;;;;;;5092526;28;20077;-60
2023/09/01 00:51:46;;;;;;;3.17;2.50;;;17.40;99.90;;;;;;5092659;28;20024;-61
2023/09/01 00:54:14;;;;;;;3.72;2.42;;;17.40;99.90;;;;;;5092898;28;20067;-60
2023/09/01 00:56:42;;;;;;;3.75;2.50;;;17.30;99.90;;;;;;5092917;28;20085;-60
2023/09/01 00:59:07;;;;;;;3.58;2.67;;;17.40;99.90;;;;;;5092984;28;20454;-61
2023/09/01 01:01:34;;;;;;;7.00;2.75;;;17.40;99.90;;;;;;5092596;28;20024;-61
2023/09/01 01:04:00;;;;;;;5.72;2.85;;;17.30;99.90;;;;;;5092401;28;20035;-61
2023/09/01 01:06:45;;;;;;;3.67;2.70;;;17.30;99.90;;;;;;5092934;28;20025;-60
2023/09/01 01:09:32;;;;;;;5.38;2.80;;;17.30;99.90;;;;;;5092926;28;20123;-60
2023/09/01 01:12:22;;;;;;;4.80;3.00;;;17.40;99.90;;;;;;5092566;28;20026;-61
2023/09/01 01:14:53;;;;;;;4.57;2.78;;;17.60;99.90;;;;;;5092546;28;20035;-61
2023/09/01 01:17:19;;;;;;;5.20;2.72;;;17.60;99.90;;;;;;5092812;28;20062;-60
2023/09/01 01:19:54;;;;;;;3.58;2.45;;;17.70;99.90;;;;;;5091686;28;20730;-61
2023/09/01 01:22:57;;;;;;;3.47;2.40;;;17.70;99.90;;;;;;5092205;28;20042;-61
2023/09/01 01:25:23;;;;;;;4.50;2.63;;;17.80;99.90;;;;;;5079402;28;20139;-61
2023/09/01 01:27:49;;;;;;;5.70;2.50;;;17.80;99.90;;;;;;5092372;28;20549;-61
2023/09/01 01:30:15;;;;;;;4.82;2.65;;;17.80;99.90;;;;;;5091638;28;20113;-60
2023/09/01 01:32:42;;;;;;;4.07;2.60;;;17.80;99.90;;;;;;5092153;28;20389;-61
2023/09/01 01:35:10;;;;;;;3.22;2.72;;;17.80;99.90;;;;;;5092089;28;20085;-61
2023/09/01 01:37:53;;;;;;;4.30;2.83;;;17.80;99.90;;;;;;5092451;28;20028;-60
2023/09/01 01:40:20;;;;;;;4.05;2.70;;;17.70;99.90;;;;;;5092002;28;20028;-60
2023/09/01 01:42:49;;;;;;;3.72;2.90;;;17.60;99.90;;;;;;5091814;28;20119;-60
2023/09/01 01:45:20;;;;;;;4.13;2.75;;;17.50;99.90;;;;;;5091957;28;20024;-60
2023/09/01 01:47:49;;;;;;;5.43;3.25;;;17.30;99.90;;;;;;5091462;28;20111;-60
2023/09/01 01:50:15;;;;;;;5.75;3.58;;;17.10;99.90;;;;;;5092064;28;20028;-60
2023/09/01 01:52:40;;;;;;;7.65;3.83;;;17.00;99.90;;;;;;5091768;28;20036;-61
2023/09/01 01:55:07;;;;;;;7.78;4.28;;;17.10;99.90;;;;;;5091836;28;20031;-61
2023/09/01 01:57:33;;;;;;;8.40;4.43;;;17.00;99.90;;;;;;5091838;28;20161;-61
2023/09/01 01:59:59;;;;;;;7.10;4.45;;;16.90;99.90;;;;;;5091965;28;20016;-61
2023/09/01 02:02:25;;;;;;;6.18;3.88;;;16.90;99.90;;;;;;5091097;28;20441;-61
2023/09/01 02:04:51;;;;;;;5.90;3.92;;;16.90;99.90;;;;;;5091603;28;20099;-61
2023/09/01 02:07:17;;;;;;;5.35;4.05;;;16.80;99.90;;;;;;5091500;28;20054;-61
2023/09/01 02:09:42;;;;;;;7.32;4.13;;;16.80;99.90;;;;;;5091401;28;20396;-61
2023/09/01 02:12:08;;;;;;;5.75;4.15;;;16.70;99.90;;;;;;5091846;28;20020;-61
2023/09/01 02:14:35;;;;;;;6.20;4.18;;;16.70;99.90;;;;;;5091626;28;20389;-60
2023/09/01 02:17:03;;;;;;;5.70;4.10;;;16.70;99.90;;;;;;5091015;28;20089;-61
2023/09/01 02:19:29;;;;;;;6.60;4.15;;;16.60;99.90;;;;;;5091120;28;20024;-61
2023/09/01 02:21:54;;;;;;;6.97;3.92;;;16.60;99.90;;;;;;5091354;28;20036;-60
2023/09/01 02:24:20;;;;;;;5.15;3.70;;;16.60;99.90;;;;;;5091347;28;20076;-61
2023/09/01 02:26:46;;;;;;;9.00;3.72;;;16.60;99.90;;;;;;5091406;28;20056;-61
2023/09/01 02:29:11;;;;;;;7.40;3.80;;;16.60;99.90;;;;;;5073127;28;20040;-61
2023/09/01 02:31:38;;;;;;;6.22;3.88;;;16.80;99.90;;;;;;5091055;28;20016;-61
2023/09/01 02:34:05;;;;;;;7.05;4.10;;;16.90;99.90;;;;;;5091080;28;20544;-61
2023/09/01 02:36:34;;;;;;;6.65;4.10;;;17.00;99.90;;;;;;5091606;28;20020;-60
2023/09/01 02:39:01;;;;;;;5.53;3.58;;;17.00;99.90;;;;;;5091129;28;20036;-61
2023/09/01 02:41:26;;;;;;;6.75;3.72;;;17.10;99.90;;;;;;5093552;28;20031;-61
2023/09/01 02:43:53;;;;;;;6.13;4.43;;;17.20;99.90;;;;;;5095365;28;20071;-60
2023/09/01 02:46:20;;;;;;;7.75;5.13;;;17.20;99.90;;;;;;5094781;28;20081;-61
2023/09/01 02:48:46;;;;;;;7.60;5.80;;;17.10;99.90;;;;;;5095173;28;20036;-61
2023/09/01 02:51:11;;;;;;;6.93;5.18;;;17.20;99.90;;;;;;5095135;28;20026;-61
2023/09/01 02:53:38;;;;;;;7.72;5.50;;;17.20;99.90;;;;;;5095111;28;20444;-61
2023/09/01 02:56:04;;;;;;;5.43;4.88;;;17.20;99.90;;;;;;5095140;28;20124;-61
2023/09/01 02:58:30;;;;;;;9.48;5.50;;;17.10;99.90;;;;;;5095328;28;20092;-61
2023/09/01 03:00:56;;;;;;;12.23;6.07;;;16.90;99.90;;;;;;5094616;28;20031;-60
2023/09/01 03:03:23;;;;;;;9.27;6.35;;;16.80;99.90;;;;;;5094907;28;20047;-61
2023/09/01 03:05:50;;;;;;;10.45;7.22;;;16.80;99.90;;;;;;5095230;28;20028;-61
2023/09/01 03:08:18;;;;;;;10.23;6.70;;;16.60;99.90;;;;;;5094453;28;20501;-61
2023/09/01 03:10:44;;;;;;;13.18;6.63;;;16.60;99.90;;;;;;5094809;28;20016;-61
2023/09/01 03:13:10;;;;;;;11.38;6.72;;;16.50;99.90;;;;;;5094763;28;20024;-61
2023/09/01 03:15:36;;;;;;;9.23;6.30;;;16.50;99.90;;;;;;5094683;28;20552;-61
2023/09/01 03:18:02;;;;;;;11.35;7.43;;;16.40;99.90;;;;;;5094692;28;20039;-61
2023/09/01 03:20:28;;;;;;;10.27;6.90;;;16.30;99.90;;;;;;5094516;28;20047;-61
2023/09/01 03:22:54;;;;;;;10.00;6.22;;;16.30;99.90;;;;;;5094537;28;20075;-61
2023/09/01 03:25:19;;;;;;;8.90;6.30;;;16.30;99.90;;;;;;5094609;28;20282;-61
2023/09/01 03:27:45;;;;;;;9.38;6.00;;;16.30;99.90;;;;;;5094699;28;20056;-61
2023/09/01 03:30:11;;;;;;;8.77;5.88;;;16.30;99.90;;;;;;5093912;28;20032;-61
2023/09/01 03:32:38;;;;;;;7.03;5.28;;;16.20;99.90;;;;;;5094426;28;20115;-61
2023/09/01 03:35:05;;;;;;;10.15;5.40;;;16.20;99.90;;;;;;5094302;28;20425;-61
2023/09/01 03:37:31;;;;;;;5.70;4.60;;;16.20;99.90;;;;;;5094271;28;20032;-61
2023/09/01 03:39:56;;;;;;;6.60;4.45;;;16.20;99.90;;;;;;5094266;28;20031;-61
2023/09/01 03:42:22;;;;;;;5.28;4.50;;;16.20;99.90;;;;;;5094507;28;20040;-61
2023/09/01 03:44:48;;;;;;;5.50;4.80;;;16.10;99.90;;;;;;5093403;28;20515;-61
2023/09/01 03:47:14;;;;;;;4.72;4.30;;;16.20;99.90;;;;;;5094296;28;20028;-61
2023/09/01 03:49:40;;;;;;;4.60;4.20;;;16.20;99.90;;;;;;5094397;28;20042;-60
2023/09/01 03:52:06;;;;;;;5.68;4.50;;;16.30;99.90;;;;;;5093304;28;20425;-61
2023/09/01 03:54:32;;;;;;;4.82;4.10;;;16.50;99.90;;;;;;5094087;28;20032;-60
2023/09/01 03:56:58;;;;;;;4.60;4.05;;;16.50;99.90;;;;;;5093959;28;20026;-61
2023/09/01 03:59:24;;;;;;;4.40;4.00;;;16.60;99.90;;;;;;5093798;28;20028;-61
2023/09/01 04:01:49;;;;;;;4.22;3.67;;;16.60;99.90;;;;;;5093763;28;20044;-61
2023/09/01 04:04:17;;;;;;;6.25;3.20;;;16.60;99.90;;;;;;5093856;28;20039;-61
2023/09/01 04:06:43;;;;;;;3.50;3.20;;;16.60;99.90;;;;;;5093742;28;20020;-61
2023/09/01 04:09:10;;;;;;;3.45;3.08;;;16.60;99.90;;;;;;5075902;28;20362;-61
2023/09/01 04:11:36;;;;;;;3.22;2.92;;;16.60;99.90;;;;;;5093598;28;20040;-60
2023/09/01 04:14:02;;;;;;;3.67;2.90;;;16.60;99.90;;;;;;5093093;28;20027;-61
2023/09/01 04:16:27;;;;;;;3.65;2.80;;;16.70;99.90;;;;;;5093607;28;20028;-60
2023/09/01 04:18:54;;;;;;;3.47;2.80;;;16.50;99.90;;;;;;5093833;28;20100;-60
2023/09/01 04:21:20;;;;;;;3.35;2.80;;;16.40;99.90;;;;;;5093321;28;20028;-61
2023/09/01 04:23:46;;;;;;;3.38;3.05;;;16.30;99.90;;;;;;5075196;28;20043;-61
2023/09/01 04:26:12;;;;;;;3.58;3.13;;;16.10;99.90;;;;;;5093341;28;20070;-61
2023/09/01 04:28:37;;;;;;;3.08;2.70;;;16.10;99.90;;;;;;5093223;28;20425;-60
2023/09/01 04:31:25;;;;;;;3.30;3.00;;;16.00;99.90;;;;;;5093339;28;20024;-60
2023/09/01 04:33:50;;;;;;;3.55;3.25;;;15.90;99.90;;;;;;5093313;28;20035;-61
2023/09/01 04:36:16;;;;;;;3.35;3.05;;;15.80;99.90;;;;;;5093065;28;20028;-61
2023/09/01 04:38:42;;;;;;;5.80;3.17;;;15.70;99.90;;;;;;5093124;28;20406;-61
2023/09/01 04:41:08;;;;;;;4.18;2.95;;;15.70;99.90;;;;;;5093183;28;20044;-61
2023/09/01 04:43:33;;;;;;;3.75;3.10;;;15.70;99.90;;;;;;5092456;28;20412;-60
2023/09/01 04:45:59;;;;;;;3.28;2.95;;;15.70;99.90;;;;;;5093413;28;20016;-61
2023/09/01 04:48:26;;;;;;;3.33;3.00;;;15.70;99.90;;;;;;5092934;28;20052;-61
2023/09/01 04:50:52;;;;;;;3.80;3.50;;;15.60;99.90;;;;;;5092694;28;20126;-61
2023/09/01 04:53:18;;;;;;;5.00;3.13;;;15.50;99.90;;;;;;5092943;28;20108;-61
2023/09/01 04:55:44;;;;;;;4.13;3.60;;;15.50;99.90;;;;;;5092762;28;20027;-60
2023/09/01 04:58:10;;;;;;;3.35;3.00;;;15.50;99.90;;;;;;5092702;28;20028;-61
2023/09/01 05:00:37;;;;;;;5.07;3.10;;;15.50;99.90;;;;;;5092696;28;20024;-60
2023/09/01 05:03:03;;;;;;;3.28;2.97;;;15.50;99.90;;;;;;5092580;28;20032;-61
2023/09/01 05:05:29;;;;;;;3.55;3.25;;;15.50;99.90;;;;;;5091859;28;20499;-61
2023/09/01 05:07:55;;;;;;;3.47;2.90;;;15.50;99.90;;;;;;5092572;28;20063;-61
2023/09/01 05:10:20;;;;;;;2.97;2.67;;;15.50;99.90;;;;;;5092063;28;20028;-61
2023/09/01 05:12:46;;;;;;;3.45;2.85;;;15.60;99.90;;;;;;5092872;28;20114;-61
2023/09/01 05:15:12;;;;;;;5.07;2.85;;;15.80;99.90;;;;;;5074270;28;20035;-61
2023/09/01 05:17:38;;;;;;;3.00;2.70;;;15.90;99.90;;;;;;5092337;28;20032;-61
2023/09/01 05:20:07;;;;;;;3.88;2.70;;;16.00;99.90;;;;;;5092636;28;20016;-61
2023/09/01 05:22:34;;;;;;;3.58;3.28;;;16.10;99.90;;;;;;5092278;28;20489;-61
2023/09/01 05:25:00;;;;;;;2.90;2.70;;;16.20;99.90;;;;;;5091947;28;20028;-60
2023/09/01 05:27:26;;;;;;;2.95;2.67;;;16.20;99.90;;;;;;5091900;28;20060;-61
2023/09/01 05:29:52;;;;;;;2.30;2.10;;;16.20;99.90;;;;;;5092113;28;20028;-61
2023/09/01 05:32:20;;;;;;;2.50;2.30;;;16.20;99.90;;;;;;5092061;28;20028;-61
2023/09/01 05:34:46;;;;;;;3.08;2.47;;;16.30;99.90;;;;;;5092106;28;20411;-61
2023/09/01 05:37:13;;;;;;;2.33;1.92;;;16.30;99.90;;;;;;5092095;28;20032;-61
2023/09/01 05:39:39;;;;;;;3.25;2.20;;;16.30;99.90;;;;;;5073690;28;20023;-61
2023/09/01 05:42:07;;;;;;;2.47;1.90;;;16.20;99.90;;;;;;5091811;28;20048;-61
2023/09/01 05:44:33;;;;;;;2.33;2.10;;;16.10;99.90;;;;;;5073841;28;20119;-61
2023/09/01 05:46:59;;;;;;;3.38;2.13;;;16.00;99.90;;;;;;5091946;28;20028;-61
2023/09/01 05:49:25;;;;;;;2.55;2.20;;;15.90;99.90;;;;;;5092000;28;20460;-61
2023/09/01 05:51:51;;;;;;;2.20;2.00;;;15.90;99.90;;;;;;5091365;28;20107;-61
2023/09/01 05:54:18;;;;;;;2.67;2.10;;;15.90;99.90;;;;;;5091227;28;20028;-61
2023/09/01 05:56:44;;;;;;;2.80;2.10;;;15.90;99.90;;;;;;5091280;28;20042;-61
2023/09/01 05:59:10;;;;;;;2.67;2.13;;;15.90;99.90;;;;;;5091340;28;20476;-60
2023/09/01 06:01:36;;;;;;;3.50;2.30;;;15.90;99.90;;;;;;5091201;28;20040;-60
2023/09/01 06:04:05;;;;;;;4.35;2.30;;;15.90;99.90;;;;;;5091571;28;20047;-60
2023/09/01 06:06:31;;;;;;;3.95;2.42;;;15.90;99.90;;;;;;5073500;28;20020;-60
2023/09/01 06:09:00;;;;;;;2.53;2.30;;;16.00;99.90;;;;;;5091079;28;20024;-60
2023/09/01 06:11:26;;;;;;;2.35;2.15;;;16.00;99.90;;;;;;5091489;28;20031;-61
2023/09/01 06:13:52;;;;;;;2.50;2.30;;;16.00;99.90;;;;;;5091762;28;20036;-60
2023/09/01 06:16:17;;;;;;;2.90;2.20;;;16.10;99.90;;;;;;5091239;28;20495;-60
2023/09/01 06:18:43;;;;;;;3.20;2.50;;;16.10;99.90;;;;;;5091389;28;20027;-60
2023/09/01 06:21:15;;;;;;;3.95;2.72;;;16.20;99.90;;;;;;5091419;28;20024;-59
2023/09/01 06:23:44;;;;;;;3.20;2.90;;;16.40;99.90;;;;;;5090816;28;20778;-60
2023/09/01 06:26:11;;;;;;;3.75;3.25;;;16.50;99.90;;;;;;5091330;28;20020;-60
2023/09/01 06:28:39;;;;;;;3.55;3.25;;;16.70;99.90;;;;;;5091682;28;20044;-60
2023/09/01 06:31:05;;;;;;;5.57;3.17;;;16.70;99.90;;;;;;5091503;28;20091;-60
2023/09/01 06:33:30;;;;;;;4.00;3.55;;;16.80;99.90;;;;;;5091325;28;20108;-60
2023/09/01 06:35:56;;;;;;;4.53;3.35;;;16.90;99.90;;;;;;5091352;28;20438;-60
2023/09/01 06:38:22;;;;;;;5.05;3.22;;;16.90;99.90;;;;;;5090878;28;20025;-60
2023/09/01 06:40:47;;;;;;;3.45;3.15;;;17.00;99.90;;;;;;5091101;28;20028;-59
2023/09/01 06:43:13;;;;;;;3.65;3.05;;;17.00;99.90;;;;;;5091473;28;20097;-60
2023/09/01 06:45:38;;;;;;;3.28;2.97;;;17.20;99.90;;;;;;5091373;28;20028;-60
2023/09/01 06:48:05;;;;;;;4.05;2.42;;;17.20;99.90;;;;;;5091049;28;20052;-60
2023/09/01 06:50:32;;;;;;;2.80;2.60;;;17.10;99.90;;;;;;5091392;28;20090;-60
2023/09/01 06:52:58;;;;;;;2.80;2.60;;;17.10;99.90;;;;;;5090712;28;20115;-60
2023/09/01 06:55:24;;;;;;;2.63;2.42;;;17.10;99.90;;;;;;5090730;28;20111;-60
2023/09/01 06:57:49;;;;;;;3.05;2.67;;;17.10;99.90;;;;;;5090683;28;20032;-60
2023/09/01 07:00:15;;;;;;;3.35;2.65;;;17.00;99.90;;;;;;5089828;28;20393;-59
2023/09/01 07:02:41;;;;;;;2.95;2.67;;;16.90;99.90;;;;;;5071843;28;20040;-60
2023/09/01 07:05:07;;;;;;;2.67;2.47;;;16.90;99.90;;;;;;5090817;28;20107;-60
2023/09/01 07:07:33;;;;;;;2.67;2.47;;;16.80;99.90;;;;;;5090377;28;20024;-60
2023/09/01 07:09:58;;;;;;;76.00;18.85;;;16.90;99.90;;;;;;5090831;28;20017;-61
2023/09/01 07:12:24;;;;;;;97.40;25.88;;;16.80;99.90;;;;;;5091336;28;20032;-60
2023/09/01 07:14:50;;;;;;;15.10;5.80;;;16.80;99.90;;;;;;5090714;28;20121;-60
2023/09/01 07:17:21;;;;;;;5.15;3.38;;;16.90;99.90;;;;;;5091002;28;20056;-60
2023/09/01 07:19:47;;;;;;;2.70;2.45;;;17.10;99.90;;;;;;5090591;28;20020;-60
2023/09/01 07:22:13;;;;;;;2.67;2.47;;;17.20;99.90;;;;;;5090705;28;20516;-60
2023/09/01 07:24:39;;;;;;;3.97;2.60;;;17.30;99.90;;;;;;5091051;28;20024;-60
2023/09/01 07:27:08;;;;;;;2.70;2.20;;;17.30;99.90;;;;;;5090558;28;20048;-60
2023/09/01 07:29:33;;;;;;;4.05;2.20;;;17.40;99.90;;;;;;5094504;28;20032;-60
2023/09/01 07:32:03;;;;;;;2.30;2.10;;;17.40;99.90;;;;;;5094468;28;20038;-60
2023/09/01 07:34:29;;;;;;;2.95;1.92;;;17.50;99.90;;;;;;5094507;28;20054;-61
2023/09/01 07:36:55;;;;;;;2.00;1.80;;;17.50;99.90;;;;;;5094293;28;20111;-60
2023/09/01 07:39:21;;;;;;;2.50;1.90;;;17.60;99.90;;;;;;5094253;28;20099;-60
2023/09/01 07:41:47;;;;;;;4.50;2.08;;;17.70;99.90;;;;;;5094161;28;20457;-60
2023/09/01 07:44:16;;;;;;;2.75;1.88;;;17.80;99.90;;;;;;5094238;28;20028;-60
2023/09/01 07:46:42;;;;;;;2.17;1.80;;;18.00;99.90;;;;;;5094598;28;20152;-60
2023/09/01 07:49:08;;;;;;;2.80;1.92;;;18.20;99.90;;;;;;5094046;28;20077;-60
2023/09/01 07:51:34;;;;;;;3.15;1.70;;;18.40;99.90;;;;;;5093232;28;20020;-61
2023/09/01 07:54:00;;;;;;;2.58;1.70;;;18.60;99.90;;;;;;5094044;28;20500;-61
2023/09/01 07:56:25;;;;;;;4.05;2.00;;;18.70;99.90;;;;;;5093925;28;20020;-61
2023/09/01 07:58:51;;;;;;;2.38;1.60;;;18.90;99.90;;;;;;5094413;28;20462;-60
2023/09/01 08:01:17;;;;;;;2.47;1.70;;;19.00;99.90;;;;;;5094029;28;20091;-61
2023/09/01 08:03:42;;;;;;;3.35;1.85;;;19.10;99.90;;;;;;5093689;28;20568;-60
2023/09/01 08:06:08;;;;;;;4.35;1.67;;;19.10;99.90;;;;;;5093443;28;20041;-61
2023/09/01 08:08:34;;;;;;;4.38;1.80;;;19.30;99.90;;;;;;5093897;28;20030;-60
2023/09/01 08:11:00;;;;;;;4.45;1.95;;;19.30;99.90;;;;;;5093846;28;20423;-59
2023/09/01 08:13:27;;;;;;;3.47;2.00;;;19.50;99.90;;;;;;5093589;28;20020;-60
2023/09/01 08:15:53;;;;;;;3.00;1.63;;;19.40;99.90;;;;;;5093852;28;20023;-60
2023/09/01 08:18:19;;;;;;;3.28;1.70;;;19.30;99.90;;;;;;5093716;28;20446;-60
2023/09/01 08:20:45;;;;;;;3.30;1.80;;;19.20;99.90;;;;;;5092366;28;20028;-61
2023/09/01 08:23:11;;;;;;;4.43;1.98;;;19.20;99.90;;;;;;5093051;28;20035;-61
2023/09/01 08:25:37;;;;;;;3.42;1.90;;;19.20;99.90;;;;;;5093262;28;20393;-60
2023/09/01 08:28:04;;;;;;;6.72;2.20;;;19.20;99.90;;;;;;5093249;28;20056;-60
2023/09/01 08:30:30;;;;;;;4.43;2.22;;;19.20;99.90;;;;;;5093649;28;20033;-60
2023/09/01 08:32:55;;;;;;;3.30;2.42;;;19.10;99.90;;;;;;5093297;28;20163;-60
2023/09/01 08:35:21;;;;;;;4.25;2.30;;;19.10;99.90;;;;;;5092730;28;20099;-60
2023/09/01 08:37:47;;;;;;;4.38;2.28;;;19.10;99.90;;;;;;5093135;28;20445;-60
2023/09/01 08:40:13;;;;;;;5.35;2.13;;;19.20;99.90;;;;;;5093437;28;20028;-59
2023/09/01 08:42:47;;;;;;;3.30;2.25;;;19.20;99.90;;;;;;5093092;28;20040;-60
2023/09/01 08:45:18;;;;;;;4.13;2.40;;;19.30;99.90;;;;;;5093113;28;20020;-60
2023/09/01 08:47:46;;;;;;;3.05;2.42;;;19.50;99.90;;;;;;5092588;28;20024;-60
2023/09/01 08:50:13;;;;;;;6.85;5.40;;;19.50;99.90;;;;;;5093148;28;20036;-60
2023/09/01 08:52:41;;;;;;;10.50;6.60;;;19.60;99.90;;;;;;5092730;28;20499;-61
2023/09/01 08:55:07;;;;;;;9.55;7.18;;;19.60;99.90;;;;;;5092934;28;20039;-60
2023/09/01 08:57:33;;;;;;;9.30;6.95;;;19.60;99.90;;;;;;5092779;28;20028;-60
2023/09/01 08:59:59;;;;;;;7.63;5.50;;;19.70;99.90;;;;;;5092744;28;20404;-61
2023/09/01 09:02:24;;;;;;;6.15;4.05;;;19.80;99.90;;;;;;5092354;28;20036;-60
2023/09/01 09:04:50;;;;;;;5.80;4.40;;;20.10;99.90;;;;;;5092922;28;20047;-60
2023/09/01 09:07:18;;;;;;;4.22;3.63;;;20.30;99.90;;;;;;5092699;28;20039;-60
2023/09/01 09:09:49;;;;;;;4.10;2.60;;;20.50;99.90;;;;;;5092958;28;20024;-61
2023/09/01 09:12:16;;;;;;;3.65;2.30;;;20.80;99.90;;;;;;5092496;28;20039;-60
2023/09/01 09:14:52;;;;;;;6.38;2.67;;;21.00;99.90;;;;;;5092529;28;20030;-60
2023/09/01 09:17:22;;;;;;;4.63;2.17;;;21.10;99.90;;;;;;5092310;28;20032;-61
2023/09/01 09:19:59;;;;;;;5.30;2.20;;;21.20;99.90;;;;;;5092274;28;20438;-60
2023/09/01 09:22:25;;;;;;;3.80;2.40;;;21.30;99.90;;;;;;5092783;28;20492;-61
2023/09/01 09:24:50;;;;;;;3.92;2.13;;;21.30;99.90;;;;;;5091937;28;20114;-60
2023/09/01 09:27:17;;;;;;;5.07;2.17;;;21.40;99.90;;;;;;5092673;28;20128;-60
2023/09/01 09:29:45;;;;;;;2.70;1.90;;;21.60;99.90;;;;;;5092108;28;20491;-61
2023/09/01 09:32:24;;;;;;;3.33;2.00;;;21.70;99.90;;;;;;5091826;28;20590;-60
2023/09/01 09:35:05;;;;;;;3.05;1.85;;;21.80;99.90;;;;;;5092136;28;20066;-60
2023/09/01 09:37:33;;;;;;;3.85;2.17;;;21.90;99.90;;;;;;5092031;28;20032;-60
2023/09/01 09:40:17;;;;;;;3.28;2.00;;;21.70;99.90;;;;;;5091942;28;20024;-61
2023/09/01 09:42:44;;;;;;;;;;;21.50;99.90;;;;;;5092292;28;20043;-60
2023/09/01 09:45:26;;;;;;;3.97;2.78;;;21.50;99.90;;;;;;5092469;28;19904;-60
2023/09/01 09:47:53;;;;;;;3.33;2.50;;;21.40;99.90;;;;;;5091458;28;20027;-60
2023/09/01 09:50:20;;;;;;;4.40;2.40;;;21.40;99.90;;;;;;5091690;28;20024;-60
2023/09/01 09:52:49;;;;;;;4.82;2.45;;;21.40;99.90;;;;;;5091482;28;20548;-61
2023/09/01 09:55:47;;;;;;;4.53;2.50;;;21.40;99.90;;;;;;5091888;28;20484;-60
2023/09/01 09:58:15;;;;;;;4.50;2.60;;;21.50;99.90;;;;;;5082552;28;20032;-60
2023/09/01 10:00:55;;;;;;;5.00;2.53;;;21.70;99.90;;;;;;5091441;28;20027;-61
2023/09/01 10:03:24;;;;;;;2.92;2.00;;;21.80;99.90;;;;;;5091965;28;20382;-60
2023/09/01 10:05:51;;;;;;;2.97;2.33;;;21.80;99.90;;;;;;5091529;28;20103;-60
2023/09/01 10:08:21;;;;;;;3.88;2.45;;;22.00;99.90;;;;;;5091456;28;20488;-60
2023/09/01 10:10:49;;;;;;;4.70;2.50;;;21.80;99.90;;;;;;5091545;28;20064;-60
2023/09/01 10:13:15;;;;;;;3.78;2.30;;;21.70;99.90;;;;;;5091515;28;20020;-61
2023/09/01 10:15:41;;;;;;;4.55;2.35;;;21.80;99.90;;;;;;5091477;28;20738;-60
2023/09/01 10:18:08;;;;;;;4.55;2.47;;;21.90;99.90;;;;;;5091316;28;20051;-60
2023/09/01 10:20:45;;;;;;;3.92;2.58;;;21.90;99.90;;;;;;5091377;28;20032;-60
2023/09/01 10:23:11;;;;;;;5.75;2.40;;;21.90;99.90;;;;;;5091454;28;20035;-61
2023/09/01 10:25:37;;;;;;;2.92;2.10;;;22.00;99.90;;;;;;5091275;28;20385;-60
2023/09/01 10:28:04;;;;;;;2.92;2.00;;;22.30;99.90;;;;;;5090870;28;20044;-60
2023/09/01 10:30:35;;;;;;;3.13;2.00;;;22.60;99.90;;;;;;5090507;28;20028;-60
2023/09/01 10:33:23;;;;;;;2.88;2.30;;;22.70;99.90;;;;;;5091144;28;20481;-60
2023/09/01 10:35:51;;;;;;;4.65;2.20;;;23.00;99.90;;;;;;5090920;28;20077;-61
2023/09/01 10:38:42;;;;;;;2.35;2.08;;;23.20;99.90;;;;;;5091081;28;20035;-61
2023/09/01 10:41:08;;;;;;;4.43;2.70;;;23.30;99.90;;;;;;5087335;28;20105;-60
2023/09/01 10:43:37;;;;;;;6.20;4.10;;;23.30;99.90;;;;;;5091430;28;20507;-61
2023/09/01 10:46:14;;;;;;;4.47;3.30;;;23.50;99.90;;;;;;5090506;28;20044;-61
2023/09/01 10:48:57;;;;;;;25.17;16.73;;;23.70;99.90;;;;;;5091121;28;20054;-61
2023/09/01 10:51:27;;;;;;;4.05;2.70;;;23.80;99.90;;;;;;5091329;28;20051;-60
2023/09/01 10:53:59;;;;;;;21.40;14.88;;;23.80;99.90;;;;;;5091108;28;20021;-60
2023/09/01 10:56:29;;;;;;;17.92;9.57;;;23.80;99.90;;;;;;5091135;28;20085;-61
2023/09/01 10:58:56;;;;;;;8.70;6.10;;;24.00;99.90;;;;;;5090493;28;20036;-61
2023/09/01 11:01:27;;;;;;;4.30;2.95;;;23.80;99.90;;;;;;5091369;28;20028;-60
2023/09/01 11:03:53;;;;;;;4.00;3.30;;;23.70;99.90;;;;;;5093668;28;20039;-61
2023/09/01 11:06:20;;;;;;;3.88;2.75;;;23.70;99.90;;;;;;5094670;28;20459;-61
2023/09/01 11:09:01;;;;;;;6.47;3.97;;;23.80;99.90;;;;;;5095238;28;20036;-61
2023/09/01 11:11:28;;;;;;;4.70;3.15;;;23.50;99.90;;;;;;5094977;28;20400;-60
2023/09/01 11:13:58;;;;;;;4.20;2.80;;;23.40;99.90;;;;;;5094395;28;20020;-60
2023/09/01 11:16:24;;;;;;;4.18;2.80;;;23.30;99.90;;;;;;5094635;28;20031;-60
2023/09/01 11:19:03;;;;;;;4.72;3.38;;;23.20;99.90;;;;;;5094919;28;20020;-60
2023/09/01 11:21:30;;;;;;;5.45;3.40;;;23.20;99.90;;;;;;5094522;28;20024;-61
2023/09/01 11:24:00;;;;;;;4.22;3.13;;;23.20;99.90;;;;;;5094773;28;20035;-61
2023/09/01 11:26:26;;;;;;;7.72;3.22;;;23.10;99.90;;;;;;5094440;28;20456;-60
2023/09/01 11:28:52;;;;;;;5.20;3.00;;;23.20;99.90;;;;;;5093979;28;20054;-60
2023/09/01 11:31:19;;;;;;;4.47;3.28;;;23.30;99.90;;;;;;5094448;28;20020;-60
2023/09/01 11:33:52;;;;;;;5.25;2.90;;;23.60;99.90;;;;;;5094411;28;20532;-60
2023/09/01 11:36:18;;;;;;;4.55;2.72;;;23.80;99.90;;;;;;5094423;28;20028;-61
2023/09/01 11:38:44;;;;;;;4.63;2.88;;;24.10;99.90;;;;;;5094161;28;20492;-61
2023/09/01 11:41:13;;;;;;;4.47;2.67;;;24.20;99.90;;;;;;5094520;28;20027;-60
2023/09/01 11:43:40;;;;;;;4.57;2.70;;;24.30;99.90;;;;;;5093953;28;20275;-60
2023/09/01 11:46:06;;;;;;;3.67;2.78;;;24.40;99.90;;;;;;5094026;28;20028;-60
2023/09/01 11:48:33;;;;;;;4.00;2.80;;;24.70;99.90;;;;;;5093727;28;20020;-60
2023/09/01 11:50:59;;;;;;;3.72;2.47;;;24.80;99.90;;;;;;5094540;28;20122;-60
2023/09/01 11:53:26;;;;;;;3.67;2.30;;;24.90;99.90;;;;;;5093991;28;20512;-60
2023/09/01 11:55:58;;;;;;;3.03;2.35;;;25.00;99.90;;;;;;5093763;28;20035;-59
2023/09/01 11:58:32;;;;;;;4.35;2.05;;;25.20;99.90;;;;;;5093418;28;20036;-60
2023/09/01 12:01:18;;;;;;;3.05;1.90;;;25.30;99.90;;;;;;5094325;28;20108;-60
2023/09/01 12:03:48;;;;;;;3.75;1.92;;;25.50;99.90;;;;;;5094069;28;20044;-60
2023/09/01 12:06:32;;;;;;;3.30;2.03;;;25.70;99.90;;;;;;5093888;28;20013;-60
2023/09/01 12:09:11;;;;;;;2.20;1.80;;;25.90;99.90;;;;;;5093711;28;20232;-60
2023/09/01 12:11:55;;;;;;;2.50;1.70;;;26.00;99.90;;;;;;5093289;28;20036;-60
2023/09/01 12:14:26;;;;;;;3.53;2.13;;;26.00;99.90;;;;;;5093572;28;20032;-60
2023/09/01 12:16:53;;;;;;;2.40;1.70;;;26.10;99.90;;;;;;5093387;28;20031;-60
2023/09/01 12:19:22;;;;;;;2.45;1.90;;;26.30;99.90;;;;;;5093891;28;20044;-60
2023/09/01 12:21:48;;;;;;;2.40;1.80;;;26.50;99.90;;;;;;5093327;28;20035;-60
2023/09/01 12:24:14;;;;;;;2.25;1.60;;;26.60;99.90;;;;;;5093678;28;20020;-60
2023/09/01 12:26:39;;;;;;;2.15;1.70;;;26.60;99.90;;;;;;5093264;28;20051;-61
2023/09/01 12:29:05;;;;;;;2.13;1.63;;;26.50;99.90;;;;;;5093338;28;20059;-60
2023/09/01 12:31:30;;;;;;;2.83;1.90;;;26.50;99.90;;;;;;5093369;28;20028;-60
2023/09/01 12:33:56;;;;;;;3.35;1.90;;;26.50;99.90;;;;;;5093315;28;20020;-60
2023/09/01 12:36:22;;;;;;;1.92;1.73;;;26.60;99.90;;;;;;5074981;28;20028;-61
2023/09/01 12:38:47;;;;;;;2.25;1.67;;;26.70;99.90;;;;;;5093064;28;20020;-60
2023/09/01 12:41:13;;;;;;;3.05;1.90;;;26.70;99.90;;;;;;5092894;28;20063;-60
2023/09/01 12:43:38;;;;;;;2.53;1.83;;;26.60;99.90;;;;;;5093055;28;20039;-60
2023/09/01 12:46:05;;;;;;;2.42;1.73;;;26.50;99.90;;;;;;5093606;28;20048;-61
2023/09/01 12:48:31;;;;;;;3.33;2.10;;;26.70;99.90;;;;;;5092989;28;20027;-60